sensor_id;sensor_type;location;lat;lon;timestamp;temperature;humidity
35960;DHT22;22043;50.970;7.192;2023-02-28T02:02:15;1.90;99.90
35960;DHT22;22043;50.970;7.192;2023-02-28T02:04:50;1.90;99.90
35960;DHT22;22043;50.970;7.192;2023-02-28T02:07:16;1.90;99.90
35960;DHT22;22043;50.970;7.192;2023-02-28T02:09:44;1.90;99.90
35960;DHT22;22043;50.970;7.192;2023-02-28T02:17:58;1.80;99.90
35960;DHT22;22043;50.970;7.192;2023-02-28T02:20:46;1.80;99.90
35960;DHT22;22043;50.970;7.192;2023-02-28T02:31:28;1.80;99.90
35960;DHT22;22043;50.970;7.192;2023-02-28T02:42:34;1.70;99.90
35960;DHT22;22043;50.970;7.192;2023-02-28T02:45:07;1.70;99.90
35960;DHT22;22043;50.970;7.192;2023-02-28T02:47:35;1.70;99.90
35960;DHT22;22043;50.970;7.192;2023-02-28T02:50:05;1.80;99.90
35960;DHT22;22043;50.970;7.192;2023-02-28T02:52:39;1.80;99.90
35960;DHT22;22043;50.970;7.192;2023-02-28T02:55:09;1.80;99.90
35960;DHT22;22043;50.970;7.192;2023-02-28T02:57:59;1.70;99.90
35960;DHT22;22043;50.970;7.192;2023-02-28T03:00:31;1.70;99.90
35960;DHT22;22043;50.970;7.192;2023-02-28T03:02:58;1.70;99.90
35960;DHT22;22043;50.970;7.192;2023-02-28T03:05:27;1.80;99.90
35960;DHT22;22043;50.970;7.192;2023-02-28T03:07:54;1.90;99.90
35960;DHT22;22043;50.970;7.192;2023-02-28T03:10:36;1.90;99.90
35960;DHT22;22043;50.970;7.192;2023-02-28T03:26:58;1.70;99.90
35960;DHT22;22043;50.970;7.192;2023-02-28T03:29:35;1.70;99.90
35960;DHT22;22043;50.970;7.192;2023-02-28T03:32:12;1.70;99.90
35960;DHT22;22043;50.970;7.192;2023-02-28T03:34:46;1.70;99.90
35960;DHT22;22043;50.970;7.192;2023-02-28T03:37:20;1.70;99.90
35960;DHT22;22043;50.970;7.192;2023-02-28T03:39:51;1.70;99.90
35960;DHT22;22043;50.970;7.192;2023-02-28T03:42:22;1.70;99.90
35960;DHT22;22043;50.970;7.192;2023-02-28T03:45:02;1.70;99.90
35960;DHT22;22043;50.970;7.192;2023-02-28T03:47:41;1.70;99.90
35960;DHT22;22043;50.970;7.192;2023-02-28T03:50:22;1.60;99.90
35960;DHT22;22043;50.970;7.192;2023-02-28T03:55:54;1.70;99.90
35960;DHT22;22043;50.970;7.192;2023-02-28T04:01:07;1.60;99.90
35960;DHT22;22043;50.970;7.192;2023-02-28T04:03:38;1.60;99.90
35960;DHT22;22043;50.970;7.192;2023-02-28T04:06:07;1.60;99.90
35960;DHT22;22043;50.970;7.192;2023-02-28T04:08:33;1.50;99.90
35960;DHT22;22043;50.970;7.192;2023-02-28T04:11:08;1.60;99.90
35960;DHT22;22043;50.970;7.192;2023-02-28T04:13:40;1.50;99.90
35960;DHT22;22043;50.970;7.192;2023-02-28T04:16:09;1.40;99.90
35960;DHT22;22043;50.970;7.192;2023-02-28T04:18:41;1.50;99.90
35960;DHT22;22043;50.970;7.192;2023-02-28T04:21:09;1.40;99.90
35960;DHT22;22043;50.970;7.192;2023-02-28T04:23:35;1.40;99.90
35960;DHT22;22043;50.970;7.192;2023-02-28T04:26:01;1.40;99.90
35960;DHT22;22043;50.970;7.192;2023-02-28T04:28:27;1.50;99.90
35960;DHT22;22043;50.970;7.192;2023-02-28T04:31:04;1.50;99.90
35960;DHT22;22043;50.970;7.192;2023-02-28T04:33:31;1.50;99.90
35960;DHT22;22043;50.970;7.192;2023-02-28T04:36:07;1.50;99.90
35960;DHT22;22043;50.970;7.192;2023-02-28T04:38:35;1.50;99.90
35960;DHT22;22043;50.970;7.192;2023-02-28T04:41:02;1.50;99.90
35960;DHT22;22043;50.970;7.192;2023-02-28T04:43:28;1.40;99.90
35960;DHT22;22043;50.970;7.192;2023-02-28T04:45:55;1.50;99.90
35960;DHT22;22043;50.970;7.192;2023-02-28T04:48:25;1.50;99.90
35960;DHT22;22043;50.970;7.192;2023-02-28T04:50:52;1.40;99.90
35960;DHT22;22043;50.970;7.192;2023-02-28T04:53:18;1.40;99.90
35960;DHT22;22043;50.970;7.192;2023-02-28T04:55:44;1.40;99.90
35960;DHT22;22043;50.970;7.192;2023-02-28T04:58:10;1.40;99.90
35960;DHT22;22043;50.970;7.192;2023-02-28T05:00:36;1.30;99.90
35960;DHT22;22043;50.970;7.192;2023-02-28T05:03:02;1.20;99.90
35960;DHT22;22043;50.970;7.192;2023-02-28T05:05:27;1.30;99.90
35960;DHT22;22043;50.970;7.192;2023-02-28T05:07:53;1.40;99.90
35960;DHT22;22043;50.970;7.192;2023-02-28T05:10:21;1.30;99.90
35960;DHT22;22043;50.970;7.192;2023-02-28T05:12:47;1.30;99.90
35960;DHT22;22043;50.970;7.192;2023-02-28T05:15:14;1.20;99.90
35960;DHT22;22043;50.970;7.192;2023-02-28T05:17:40;1.10;99.90
35960;DHT22;22043;50.970;7.192;2023-02-28T05:20:07;1.20;99.90
35960;DHT22;22043;50.970;7.192;2023-02-28T05:22:37;1.20;99.90
35960;DHT22;22043;50.970;7.192;2023-02-28T05:25:04;1.20;99.90
35960;DHT22;22043;50.970;7.192;2023-02-28T05:27:32;1.10;99.90
35960;DHT22;22043;50.970;7.192;2023-02-28T05:29:58;1.10;99.90
35960;DHT22;22043;50.970;7.192;2023-02-28T05:32:24;1.00;99.90
35960;DHT22;22043;50.970;7.192;2023-02-28T05:34:50;1.10;99.90
35960;DHT22;22043;50.970;7.192;2023-02-28T05:37:16;1.00;99.90
35960;DHT22;22043;50.970;7.192;2023-02-28T05:39:42;1.00;99.90
35960;DHT22;22043;50.970;7.192;2023-02-28T05:42:08;1.00;99.90
35960;DHT22;22043;50.970;7.192;2023-02-28T05:44:35;1.00;99.90
35960;DHT22;22043;50.970;7.192;2023-02-28T05:47:01;1.00;99.90
35960;DHT22;22043;50.970;7.192;2023-02-28T05:49:26;0.90;99.90
35960;DHT22;22043;50.970;7.192;2023-02-28T05:51:52;0.90;99.90
35960;DHT22;22043;50.970;7.192;2023-02-28T05:54:18;1.00;99.90
35960;DHT22;22043;50.970;7.192;2023-02-28T05:56:43;1.00;99.90
35960;DHT22;22043;50.970;7.192;2023-02-28T05:59:12;1.00;99.90
35960;DHT22;22043;50.970;7.192;2023-02-28T06:01:45;0.90;99.90
35960;DHT22;22043;50.970;7.192;2023-02-28T06:04:14;0.90;99.90
35960;DHT22;22043;50.970;7.192;2023-02-28T06:06:47;0.90;99.90
35960;DHT22;22043;50.970;7.192;2023-02-28T06:09:13;0.90;99.90
35960;DHT22;22043;50.970;7.192;2023-02-28T06:11:39;0.90;99.90
35960;DHT22;22043;50.970;7.192;2023-02-28T06:14:05;0.90;99.90
35960;DHT22;22043;50.970;7.192;2023-02-28T06:16:33;0.90;99.90
35960;DHT22;22043;50.970;7.192;2023-02-28T06:19:02;0.90;99.90
35960;DHT22;22043;50.970;7.192;2023-02-28T06:21:29;0.90;99.90
35960;DHT22;22043;50.970;7.192;2023-02-28T06:23:56;0.80;99.90
35960;DHT22;22043;50.970;7.192;2023-02-28T06:26:22;0.80;99.90
35960;DHT22;22043;50.970;7.192;2023-02-28T06:28:48;0.80;99.90
35960;DHT22;22043;50.970;7.192;2023-02-28T06:31:16;0.80;99.90
35960;DHT22;22043;50.970;7.192;2023-02-28T06:33:44;0.80;99.90
35960;DHT22;22043;50.970;7.192;2023-02-28T06:36:11;0.80;99.90
35960;DHT22;22043;50.970;7.192;2023-02-28T06:38:37;0.80;99.90
35960;DHT22;22043;50.970;7.192;2023-02-28T06:41:03;0.70;99.90
35960;DHT22;22043;50.970;7.192;2023-02-28T06:43:32;0.80;99.90
35960;DHT22;22043;50.970;7.192;2023-02-28T06:46:00;0.80;99.90
35960;DHT22;22043;50.970;7.192;2023-02-28T06:48:27;0.80;99.90
35960;DHT22;22043;50.970;7.192;2023-02-28T06:51:04;0.80;99.90
35960;DHT22;22043;50.970;7.192;2023-02-28T06:53:30;0.80;99.90
35960;DHT22;22043;50.970;7.192;2023-02-28T06:55:56;0.90;99.90
35960;DHT22;22043;50.970;7.192;2023-02-28T06:58:22;0.90;99.90
35960;DHT22;22043;50.970;7.192;2023-02-28T07:00:51;0.90;99.90
35960;DHT22;22043;50.970;7.192;2023-02-28T07:03:17;0.90;99.90
35960;DHT22;22043;50.970;7.192;2023-02-28T07:05:44;1.00;99.90
35960;DHT22;22043;50.970;7.192;2023-02-28T07:08:10;1.00;99.90
35960;DHT22;22043;50.970;7.192;2023-02-28T07:10:39;1.10;99.90
35960;DHT22;22043;50.970;7.192;2023-02-28T07:13:06;1.10;99.90
35960;DHT22;22043;50.970;7.192;2023-02-28T07:15:32;1.00;99.90
35960;DHT22;22043;50.970;7.192;2023-02-28T07:17:58;1.00;99.90
35960;DHT22;22043;50.970;7.192;2023-02-28T07:20:24;1.10;99.90
35960;DHT22;22043;50.970;7.192;2023-02-28T07:22:50;1.20;99.90
35960;DHT22;22043;50.970;7.192;2023-02-28T07:25:25;1.10;99.90
35960;DHT22;22043;50.970;7.192;2023-02-28T07:27:51;1.10;99.90
35960;DHT22;22043;50.970;7.192;2023-02-28T07:30:17;1.10;99.90
35960;DHT22;22043;50.970;7.192;2023-02-28T07:32:43;1.10;99.90
35960;DHT22;22043;50.970;7.192;2023-02-28T07:35:09;1.10;99.90
35960;DHT22;22043;50.970;7.192;2023-02-28T07:37:35;1.20;99.90
35960;DHT22;22043;50.970;7.192;2023-02-28T07:40:06;1.20;99.90
35960;DHT22;22043;50.970;7.192;2023-02-28T07:42:35;1.20;99.90
35960;DHT22;22043;50.970;7.192;2023-02-28T07:45:04;1.30;99.90
35960;DHT22;22043;50.970;7.192;2023-02-28T07:47:30;1.30;99.90
35960;DHT22;22043;50.970;7.192;2023-02-28T07:49:56;1.30;99.90
35960;DHT22;22043;50.970;7.192;2023-02-28T07:52:22;1.40;99.90
35960;DHT22;22043;50.970;7.192;2023-02-28T07:54:49;1.50;99.90
35960;DHT22;22043;50.970;7.192;2023-02-28T07:57:15;1.40;99.90
35960;DHT22;22043;50.970;7.192;2023-02-28T07:59:41;1.50;99.90
35960;DHT22;22043;50.970;7.192;2023-02-28T08:02:09;1.50;99.90
35960;DHT22;22043;50.970;7.192;2023-02-28T08:04:35;1.60;99.90
35960;DHT22;22043;50.970;7.192;2023-02-28T08:07:00;1.60;99.90
35960;DHT22;22043;50.970;7.192;2023-02-28T08:09:26;1.70;99.90
35960;DHT22;22043;50.970;7.192;2023-02-28T08:11:52;1.80;99.90
35960;DHT22;22043;50.970;7.192;2023-02-28T08:14:17;1.80;99.70
35960;DHT22;22043;50.970;7.192;2023-02-28T08:16:43;1.80;98.70
35960;DHT22;22043;50.970;7.192;2023-02-28T08:19:09;1.80;98.30
35960;DHT22;22043;50.970;7.192;2023-02-28T08:21:34;1.80;98.00
35960;DHT22;22043;50.970;7.192;2023-02-28T08:24:00;1.90;99.00
35960;DHT22;22043;50.970;7.192;2023-02-28T08:26:26;1.90;98.10
35960;DHT22;22043;50.970;7.192;2023-02-28T08:28:52;1.90;97.50
35960;DHT22;22043;50.970;7.192;2023-02-28T08:31:18;1.90;97.70
35960;DHT22;22043;50.970;7.192;2023-02-28T08:33:45;1.90;97.30
35960;DHT22;22043;50.970;7.192;2023-02-28T08:36:11;2.00;98.20
35960;DHT22;22043;50.970;7.192;2023-02-28T08:38:37;2.10;98.00
35960;DHT22;22043;50.970;7.192;2023-02-28T08:41:06;2.10;98.10
35960;DHT22;22043;50.970;7.192;2023-02-28T08:43:33;2.10;97.60
35960;DHT22;22043;50.970;7.192;2023-02-28T08:45:59;2.20;96.50
35960;DHT22;22043;50.970;7.192;2023-02-28T08:48:30;2.20;96.20
35960;DHT22;22043;50.970;7.192;2023-02-28T08:50:57;2.30;96.10
35960;DHT22;22043;50.970;7.192;2023-02-28T08:53:23;2.30;95.80
35960;DHT22;22043;50.970;7.192;2023-02-28T08:56:09;2.40;94.90
35960;DHT22;22043;50.970;7.192;2023-02-28T08:58:35;2.40;94.70
35960;DHT22;22043;50.970;7.192;2023-02-28T09:01:07;2.50;95.20
35960;DHT22;22043;50.970;7.192;2023-02-28T09:03:33;2.50;93.30
35960;DHT22;22043;50.970;7.192;2023-02-28T09:06:00;2.50;92.90
35960;DHT22;22043;50.970;7.192;2023-02-28T09:08:28;2.50;91.80
35960;DHT22;22043;50.970;7.192;2023-02-28T09:10:54;2.50;92.60
35960;DHT22;22043;50.970;7.192;2023-02-28T09:13:22;2.60;92.70
35960;DHT22;22043;50.970;7.192;2023-02-28T09:15:48;2.60;92.90
35960;DHT22;22043;50.970;7.192;2023-02-28T09:18:14;2.70;94.20
35960;DHT22;22043;50.970;7.192;2023-02-28T09:20:41;2.70;92.30
35960;DHT22;22043;50.970;7.192;2023-02-28T09:23:08;2.70;92.20
35960;DHT22;22043;50.970;7.192;2023-02-28T09:25:34;2.70;91.70
35960;DHT22;22043;50.970;7.192;2023-02-28T09:28:01;2.70;92.10
35960;DHT22;22043;50.970;7.192;2023-02-28T09:30:26;2.70;92.20
35960;DHT22;22043;50.970;7.192;2023-02-28T09:32:52;2.80;93.10
35960;DHT22;22043;50.970;7.192;2023-02-28T09:35:23;2.80;91.90
35960;DHT22;22043;50.970;7.192;2023-02-28T09:37:50;2.80;91.80
35960;DHT22;22043;50.970;7.192;2023-02-28T09:40:21;2.80;91.10
35960;DHT22;22043;50.970;7.192;2023-02-28T09:42:49;2.80;90.60
35960;DHT22;22043;50.970;7.192;2023-02-28T09:48:29;2.80;90.50
35960;DHT22;22043;50.970;7.192;2023-02-28T09:51:08;2.80;90.80
35960;DHT22;22043;50.970;7.192;2023-02-28T09:53:37;2.90;90.60
35960;DHT22;22043;50.970;7.192;2023-02-28T09:56:09;2.90;90.80
35960;DHT22;22043;50.970;7.192;2023-02-28T10:01:12;3.00;91.90
35960;DHT22;22043;50.970;7.192;2023-02-28T10:03:49;3.00;90.60
35960;DHT22;22043;50.970;7.192;2023-02-28T10:06:20;3.00;90.90
35960;DHT22;22043;50.970;7.192;2023-02-28T10:08:56;3.00;91.30
35960;DHT22;22043;50.970;7.192;2023-02-28T10:11:24;3.10;90.30
35960;DHT22;22043;50.970;7.192;2023-02-28T10:14:15;3.10;90.10
35960;DHT22;22043;50.970;7.192;2023-02-28T10:19:34;3.10;89.40
35960;DHT22;22043;50.970;7.192;2023-02-28T10:22:14;3.10;90.30
35960;DHT22;22043;50.970;7.192;2023-02-28T10:24:43;3.10;90.30
35960;DHT22;22043;50.970;7.192;2023-02-28T10:27:31;3.10;90.80
35960;DHT22;22043;50.970;7.192;2023-02-28T10:29:59;3.20;90.70
35960;DHT22;22043;50.970;7.192;2023-02-28T10:32:30;3.20;90.90
35960;DHT22;22043;50.970;7.192;2023-02-28T10:35:16;3.20;90.60
35960;DHT22;22043;50.970;7.192;2023-02-28T10:37:47;3.30;95.90
35960;DHT22;22043;50.970;7.192;2023-02-28T10:45:26;3.30;93.50
35960;DHT22;22043;50.970;7.192;2023-02-28T10:47:55;3.40;92.70
35960;DHT22;22043;50.970;7.192;2023-02-28T10:50:37;3.50;91.90
35960;DHT22;22043;50.970;7.192;2023-02-28T11:01:19;3.60;90.30
35960;DHT22;22043;50.970;7.192;2023-02-28T11:03:46;3.70;89.60
35960;DHT22;22043;50.970;7.192;2023-02-28T11:06:22;3.70;86.60
35960;DHT22;22043;50.970;7.192;2023-02-28T11:08:54;3.70;88.30
35960;DHT22;22043;50.970;7.192;2023-02-28T11:11:22;3.80;89.80
35960;DHT22;22043;50.970;7.192;2023-02-28T11:13:52;3.80;88.00
35960;DHT22;22043;50.970;7.192;2023-02-28T11:16:19;3.90;89.20
35960;DHT22;22043;50.970;7.192;2023-02-28T11:18:53;3.90;88.40
35960;DHT22;22043;50.970;7.192;2023-02-28T11:21:24;4.00;87.40
35960;DHT22;22043;50.970;7.192;2023-02-28T11:23:53;4.00;89.60
35960;DHT22;22043;50.970;7.192;2023-02-28T11:26:39;4.00;89.00
35960;DHT22;22043;50.970;7.192;2023-02-28T11:29:29;4.10;88.50
35960;DHT22;22043;50.970;7.192;2023-02-28T11:37:37;4.10;86.00
35960;DHT22;22043;50.970;7.192;2023-02-28T11:40:15;4.00;88.30
35960;DHT22;22043;50.970;7.192;2023-02-28T11:42:55;4.00;87.90
35960;DHT22;22043;50.970;7.192;2023-02-28T11:48:18;4.00;87.10
35960;DHT22;22043;50.970;7.192;2023-02-28T11:50:52;4.00;88.40
35960;DHT22;22043;50.970;7.192;2023-02-28T12:07:05;4.20;86.80
35960;DHT22;22043;50.970;7.192;2023-02-28T12:24:33;4.10;87.00
35960;DHT22;22043;50.970;7.192;2023-02-28T12:27:03;4.10;90.20
35960;DHT22;22043;50.970;7.192;2023-02-28T12:29:36;4.00;90.20
35960;DHT22;22043;50.970;7.192;2023-02-28T12:32:11;4.10;90.40
35960;DHT22;22043;50.970;7.192;2023-02-28T12:34:49;4.10;90.40
35960;DHT22;22043;50.970;7.192;2023-02-28T12:37:29;4.10;90.20
35960;DHT22;22043;50.970;7.192;2023-02-28T12:40:03;4.10;88.80
35960;DHT22;22043;50.970;7.192;2023-02-28T12:42:36;4.20;90.30
35960;DHT22;22043;50.970;7.192;2023-02-28T12:45:22;4.20;90.20
35960;DHT22;22043;50.970;7.192;2023-02-28T12:48:00;4.20;87.40
35960;DHT22;22043;50.970;7.192;2023-02-28T12:50:29;4.30;90.00
35960;DHT22;22043;50.970;7.192;2023-02-28T12:53:31;4.30;88.80
35960;DHT22;22043;50.970;7.192;2023-02-28T12:59:00;4.30;84.20
35960;DHT22;22043;50.970;7.192;2023-02-28T13:01:44;4.30;85.90
35960;DHT22;22043;50.970;7.192;2023-02-28T13:04:32;4.30;87.30
35960;DHT22;22043;50.970;7.192;2023-02-28T13:09:40;4.40;85.50
35960;DHT22;22043;50.970;7.192;2023-02-28T13:12:13;4.40;84.90
35960;DHT22;22043;50.970;7.192;2023-02-28T13:14:39;4.40;85.60
35960;DHT22;22043;50.970;7.192;2023-02-28T13:24:57;4.50;86.90
35960;DHT22;22043;50.970;7.192;2023-02-28T13:29:50;4.50;87.40
35960;DHT22;22043;50.970;7.192;2023-02-28T13:32:35;4.50;88.20
35960;DHT22;22043;50.970;7.192;2023-02-28T13:37:32;4.50;87.20
35960;DHT22;22043;50.970;7.192;2023-02-28T13:40:24;4.50;86.10
35960;DHT22;22043;50.970;7.192;2023-02-28T13:42:51;4.50;85.60
35960;DHT22;22043;50.970;7.192;2023-02-28T13:45:23;4.60;87.50
35960;DHT22;22043;50.970;7.192;2023-02-28T13:47:58;4.60;85.70
35960;DHT22;22043;50.970;7.192;2023-02-28T13:50:34;4.70;86.50
35960;DHT22;22043;50.970;7.192;2023-02-28T13:55:53;4.70;86.50
35960;DHT22;22043;50.970;7.192;2023-02-28T14:01:06;4.70;88.20
35960;DHT22;22043;50.970;7.192;2023-02-28T14:03:48;4.70;88.30
35960;DHT22;22043;50.970;7.192;2023-02-28T14:06:29;4.80;86.20
35960;DHT22;22043;50.970;7.192;2023-02-28T14:11:44;4.80;88.30
35960;DHT22;22043;50.970;7.192;2023-02-28T14:17:06;4.80;85.40
35960;DHT22;22043;50.970;7.192;2023-02-28T14:19:35;4.80;84.10
35960;DHT22;22043;50.970;7.192;2023-02-28T14:25:22;4.80;84.30
35960;DHT22;22043;50.970;7.192;2023-02-28T14:36:27;4.90;83.30
35960;DHT22;22043;50.970;7.192;2023-02-28T14:38:57;4.90;83.60
35960;DHT22;22043;50.970;7.192;2023-02-28T14:41:26;4.90;83.70
35960;DHT22;22043;50.970;7.192;2023-02-28T14:43:59;4.80;83.20
35960;DHT22;22043;50.970;7.192;2023-02-28T14:46:33;4.90;84.80
35960;DHT22;22043;50.970;7.192;2023-02-28T14:49:01;4.90;85.00
35960;DHT22;22043;50.970;7.192;2023-02-28T14:51:29;4.90;85.80
35960;DHT22;22043;50.970;7.192;2023-02-28T14:54:01;4.90;83.60
35960;DHT22;22043;50.970;7.192;2023-02-28T14:56:41;4.80;83.80
35960;DHT22;22043;50.970;7.192;2023-02-28T14:59:33;4.90;83.40
35960;DHT22;22043;50.970;7.192;2023-02-28T15:02:22;4.90;85.50
35960;DHT22;22043;50.970;7.192;2023-02-28T15:04:59;4.90;85.90
35960;DHT22;22043;50.970;7.192;2023-02-28T15:07:25;4.90;86.00
35960;DHT22;22043;50.970;7.192;2023-02-28T15:10:20;4.90;84.60
35960;DHT22;22043;50.970;7.192;2023-02-28T15:13:07;4.90;85.20
35960;DHT22;22043;50.970;7.192;2023-02-28T15:15:49;4.90;85.20
35960;DHT22;22043;50.970;7.192;2023-02-28T15:21:01;5.00;83.60
35960;DHT22;22043;50.970;7.192;2023-02-28T15:23:29;5.00;85.50
35960;DHT22;22043;50.970;7.192;2023-02-28T15:25:55;5.00;84.00
35960;DHT22;22043;50.970;7.192;2023-02-28T15:28:22;5.00;85.90
35960;DHT22;22043;50.970;7.192;2023-02-28T15:33:23;5.00;85.50
35960;DHT22;22043;50.970;7.192;2023-02-28T15:35:49;5.00;85.20
35960;DHT22;22043;50.970;7.192;2023-02-28T15:40:45;4.90;85.20
35960;DHT22;22043;50.970;7.192;2023-02-28T15:43:32;4.90;88.20
35960;DHT22;22043;50.970;7.192;2023-02-28T15:46:07;4.90;87.70
35960;DHT22;22043;50.970;7.192;2023-02-28T15:48:42;5.00;85.70
35960;DHT22;22043;50.970;7.192;2023-02-28T15:53:57;4.90;84.20
35960;DHT22;22043;50.970;7.192;2023-02-28T15:56:31;4.90;84.70
35960;DHT22;22043;50.970;7.192;2023-02-28T15:58:59;4.90;84.40
35960;DHT22;22043;50.970;7.192;2023-02-28T16:01:31;4.90;85.30
35960;DHT22;22043;50.970;7.192;2023-02-28T16:04:01;4.90;85.10
35960;DHT22;22043;50.970;7.192;2023-02-28T16:06:53;4.90;84.70
35960;DHT22;22043;50.970;7.192;2023-02-28T16:09:26;4.90;86.70
35960;DHT22;22043;50.970;7.192;2023-02-28T16:11:55;4.90;86.90
35960;DHT22;22043;50.970;7.192;2023-02-28T16:14:27;4.90;85.90
35960;DHT22;22043;50.970;7.192;2023-02-28T16:16:57;4.90;86.20
35960;DHT22;22043;50.970;7.192;2023-02-28T16:19:27;4.90;85.10
35960;DHT22;22043;50.970;7.192;2023-02-28T16:21:53;4.90;87.30
35960;DHT22;22043;50.970;7.192;2023-02-28T16:24:18;4.90;87.10
35960;DHT22;22043;50.970;7.192;2023-02-28T16:26:47;4.80;87.60
35960;DHT22;22043;50.970;7.192;2023-02-28T16:29:25;4.80;86.30
35960;DHT22;22043;50.970;7.192;2023-02-28T16:31:52;4.90;86.50
35960;DHT22;22043;50.970;7.192;2023-02-28T16:34:19;4.80;87.80
35960;DHT22;22043;50.970;7.192;2023-02-28T16:36:47;4.80;86.60
35960;DHT22;22043;50.970;7.192;2023-02-28T16:39:12;4.80;84.60
35960;DHT22;22043;50.970;7.192;2023-02-28T16:41:43;4.80;85.90
35960;DHT22;22043;50.970;7.192;2023-02-28T16:44:14;4.80;86.10
35960;DHT22;22043;50.970;7.192;2023-02-28T16:46:43;4.70;87.20
35960;DHT22;22043;50.970;7.192;2023-02-28T16:49:12;4.70;87.50
35960;DHT22;22043;50.970;7.192;2023-02-28T16:51:38;4.70;89.50
35960;DHT22;22043;50.970;7.192;2023-02-28T16:54:04;4.70;88.60
35960;DHT22;22043;50.970;7.192;2023-02-28T16:56:30;4.70;88.70
35960;DHT22;22043;50.970;7.192;2023-02-28T16:59:00;4.60;87.80
35960;DHT22;22043;50.970;7.192;2023-02-28T17:01:26;4.60;88.90
35960;DHT22;22043;50.970;7.192;2023-02-28T17:03:53;4.60;87.80
35960;DHT22;22043;50.970;7.192;2023-02-28T17:06:20;4.60;88.70
35960;DHT22;22043;50.970;7.192;2023-02-28T17:08:47;4.60;90.70
35960;DHT22;22043;50.970;7.192;2023-02-28T17:11:13;4.60;89.40
35960;DHT22;22043;50.970;7.192;2023-02-28T17:13:39;4.50;90.20
35960;DHT22;22043;50.970;7.192;2023-02-28T17:16:05;4.50;89.80
35960;DHT22;22043;50.970;7.192;2023-02-28T17:18:31;4.50;90.90
35960;DHT22;22043;50.970;7.192;2023-02-28T17:21:00;4.50;91.00
35960;DHT22;22043;50.970;7.192;2023-02-28T17:23:26;4.40;91.50
35960;DHT22;22043;50.970;7.192;2023-02-28T17:25:52;4.40;91.80
35960;DHT22;22043;50.970;7.192;2023-02-28T17:28:21;4.40;91.80
35960;DHT22;22043;50.970;7.192;2023-02-28T17:30:47;4.30;93.10
35960;DHT22;22043;50.970;7.192;2023-02-28T17:33:14;4.30;93.00
35960;DHT22;22043;50.970;7.192;2023-02-28T17:35:40;4.30;93.00
35960;DHT22;22043;50.970;7.192;2023-02-28T17:38:15;4.20;91.60
35960;DHT22;22043;50.970;7.192;2023-02-28T17:40:41;4.20;91.70
35960;DHT22;22043;50.970;7.192;2023-02-28T17:43:07;4.10;91.60
35960;DHT22;22043;50.970;7.192;2023-02-28T17:45:32;4.10;92.80
35960;DHT22;22043;50.970;7.192;2023-02-28T17:48:00;4.10;92.00
35960;DHT22;22043;50.970;7.192;2023-02-28T17:50:26;4.10;91.90
35960;DHT22;22043;50.970;7.192;2023-02-28T17:52:52;4.10;92.30
35960;DHT22;22043;50.970;7.192;2023-02-28T17:55:18;4.10;92.10
35960;DHT22;22043;50.970;7.192;2023-02-28T17:57:46;4.10;92.50
35960;DHT22;22043;50.970;7.192;2023-02-28T18:00:14;4.00;92.80
35960;DHT22;22043;50.970;7.192;2023-02-28T18:02:41;4.10;92.50
35960;DHT22;22043;50.970;7.192;2023-02-28T18:05:08;4.10;92.40
35960;DHT22;22043;50.970;7.192;2023-02-28T18:07:34;4.10;92.40
35960;DHT22;22043;50.970;7.192;2023-02-28T18:10:01;4.00;91.90
35960;DHT22;22043;50.970;7.192;2023-02-28T18:12:28;4.00;92.90
35960;DHT22;22043;50.970;7.192;2023-02-28T18:14:54;4.00;93.50
35960;DHT22;22043;50.970;7.192;2023-02-28T18:17:20;4.00;92.70
35960;DHT22;22043;50.970;7.192;2023-02-28T18:19:46;3.90;93.70
35960;DHT22;22043;50.970;7.192;2023-02-28T18:22:11;3.90;93.30
35960;DHT22;22043;50.970;7.192;2023-02-28T18:24:37;3.90;92.70
35960;DHT22;22043;50.970;7.192;2023-02-28T18:27:03;3.90;93.10
35960;DHT22;22043;50.970;7.192;2023-02-28T18:29:28;3.90;93.30
35960;DHT22;22043;50.970;7.192;2023-02-28T18:31:56;3.90;93.30
35960;DHT22;22043;50.970;7.192;2023-02-28T18:34:22;3.90;93.30
35960;DHT22;22043;50.970;7.192;2023-02-28T18:36:48;3.90;94.10
35960;DHT22;22043;50.970;7.192;2023-02-28T18:39:16;3.80;93.70
35960;DHT22;22043;50.970;7.192;2023-02-28T18:41:42;3.80;93.90
35960;DHT22;22043;50.970;7.192;2023-02-28T18:44:08;3.80;93.80
35960;DHT22;22043;50.970;7.192;2023-02-28T18:46:34;3.80;94.40
35960;DHT22;22043;50.970;7.192;2023-02-28T18:49:00;3.70;94.10
35960;DHT22;22043;50.970;7.192;2023-02-28T18:51:27;3.70;94.00
35960;DHT22;22043;50.970;7.192;2023-02-28T18:53:54;3.70;94.20
35960;DHT22;22043;50.970;7.192;2023-02-28T18:56:23;3.70;94.70
35960;DHT22;22043;50.970;7.192;2023-02-28T18:58:49;3.70;94.50
35960;DHT22;22043;50.970;7.192;2023-02-28T19:01:26;3.70;93.90
35960;DHT22;22043;50.970;7.192;2023-02-28T19:03:55;3.70;94.00
35960;DHT22;22043;50.970;7.192;2023-02-28T19:06:21;3.70;94.20
35960;DHT22;22043;50.970;7.192;2023-02-28T19:08:47;3.60;94.50
35960;DHT22;22043;50.970;7.192;2023-02-28T19:11:18;3.70;94.60
35960;DHT22;22043;50.970;7.192;2023-02-28T19:13:44;3.60;94.40
35960;DHT22;22043;50.970;7.192;2023-02-28T19:16:12;3.60;95.10
35960;DHT22;22043;50.970;7.192;2023-02-28T19:18:38;3.60;94.90
35960;DHT22;22043;50.970;7.192;2023-02-28T19:21:14;3.50;94.50
35960;DHT22;22043;50.970;7.192;2023-02-28T19:23:41;3.60;95.10
35960;DHT22;22043;50.970;7.192;2023-02-28T19:26:25;3.50;95.60
35960;DHT22;22043;50.970;7.192;2023-02-28T19:28:51;3.50;95.30
35960;DHT22;22043;50.970;7.192;2023-02-28T19:31:22;3.50;95.30
35960;DHT22;22043;50.970;7.192;2023-02-28T19:33:48;3.50;95.30
35960;DHT22;22043;50.970;7.192;2023-02-28T19:36:17;3.50;96.00
35960;DHT22;22043;50.970;7.192;2023-02-28T19:38:44;3.50;95.70
35960;DHT22;22043;50.970;7.192;2023-02-28T19:41:11;3.50;95.80
35960;DHT22;22043;50.970;7.192;2023-02-28T19:43:37;3.50;95.50
35960;DHT22;22043;50.970;7.192;2023-02-28T19:46:03;3.50;96.00
35960;DHT22;22043;50.970;7.192;2023-02-28T19:48:29;3.40;95.80
35960;DHT22;22043;50.970;7.192;2023-02-28T19:50:57;3.50;96.40
35960;DHT22;22043;50.970;7.192;2023-02-28T19:53:23;3.50;96.50
35960;DHT22;22043;50.970;7.192;2023-02-28T19:55:49;3.50;96.40
35960;DHT22;22043;50.970;7.192;2023-02-28T19:58:16;3.40;96.90
35960;DHT22;22043;50.970;7.192;2023-02-28T20:00:42;3.40;96.70
35960;DHT22;22043;50.970;7.192;2023-02-28T20:03:07;3.40;96.60
35960;DHT22;22043;50.970;7.192;2023-02-28T20:05:33;3.40;97.00
35960;DHT22;22043;50.970;7.192;2023-02-28T20:07:59;3.40;96.70
35960;DHT22;22043;50.970;7.192;2023-02-28T20:10:24;3.40;96.20
35960;DHT22;22043;50.970;7.192;2023-02-28T20:12:50;3.40;96.30
35960;DHT22;22043;50.970;7.192;2023-02-28T20:15:16;3.40;96.60
35960;DHT22;22043;50.970;7.192;2023-02-28T20:17:41;3.40;98.00
35960;DHT22;22043;50.970;7.192;2023-02-28T20:20:08;3.40;96.70
35960;DHT22;22043;50.970;7.192;2023-02-28T20:22:36;3.40;97.50
35960;DHT22;22043;50.970;7.192;2023-02-28T20:25:03;3.40;97.80
35960;DHT22;22043;50.970;7.192;2023-02-28T20:27:28;3.40;97.50
35960;DHT22;22043;50.970;7.192;2023-02-28T20:29:55;3.30;96.80
35960;DHT22;22043;50.970;7.192;2023-02-28T20:32:20;3.30;97.00
35960;DHT22;22043;50.970;7.192;2023-02-28T20:34:46;3.30;97.00